createdAt,value
2023-05-10T00:00:55.857Z,0.70
2023-05-10T00:01:55.909Z,0.70
2023-05-10T00:02:55.854Z,0.60
2023-05-10T00:03:55.877Z,0.70
2023-05-10T00:04:55.787Z,0.40
2023-05-10T00:05:55.815Z,0.30
2023-05-10T00:06:55.796Z,0.50
2023-05-10T00:07:55.758Z,0.90
2023-05-10T00:08:55.756Z,0.90
2023-05-10T00:09:55.773Z,0.60
2023-05-10T00:10:55.742Z,0.80
2023-05-10T00:11:55.743Z,0.40
2023-05-10T00:12:55.789Z,0.90
2023-05-10T00:13:55.705Z,0.80
2023-05-10T00:14:55.682Z,0.80
2023-05-10T00:15:55.676Z,0.90
2023-05-10T00:16:55.655Z,0.60
2023-05-10T00:17:55.709Z,0.60
2023-05-10T00:18:55.659Z,0.90
2023-05-10T00:19:55.618Z,0.70
2023-05-10T00:20:55.608Z,0.80
2023-05-10T00:21:55.600Z,1.00
2023-05-10T00:22:55.589Z,0.50
2023-05-10T00:23:55.600Z,0.20
2023-05-10T00:24:55.560Z,0.40
2023-05-10T00:25:55.568Z,0.50
2023-05-10T00:26:55.536Z,0.40
2023-05-10T00:27:55.535Z,0.30
2023-05-10T00:28:55.541Z,0.30
2023-05-10T00:29:55.523Z,0.30
2023-05-10T00:30:55.510Z,0.60
2023-05-10T00:31:55.569Z,0.30
2023-05-10T00:32:55.494Z,0.20
2023-05-10T00:33:55.482Z,0.40
2023-05-10T00:34:55.471Z,0.20
2023-05-10T00:35:55.449Z,0.40
2023-05-10T00:36:55.439Z,0.60
2023-05-10T00:37:55.439Z,0.20
2023-05-10T00:38:55.407Z,0.40
2023-05-10T00:39:55.466Z,0.20
2023-05-10T00:40:55.386Z,0.30
2023-05-10T00:41:55.384Z,0.30
2023-05-10T00:42:55.381Z,0.40
2023-05-10T00:43:55.370Z,0.30
2023-05-10T00:44:55.385Z,0.30
2023-05-10T00:45:55.431Z,0.10
2023-05-10T00:46:55.349Z,0.20
2023-05-10T00:47:55.496Z,0.60
2023-05-10T00:48:55.320Z,0.30
2023-05-10T00:49:55.299Z,0.40
2023-05-10T00:50:55.312Z,0.40
2023-05-10T00:51:55.288Z,0.50
2023-05-10T00:52:55.302Z,0.50
2023-05-10T00:53:55.250Z,0.40
2023-05-10T00:54:55.268Z,0.40
2023-05-10T00:55:55.276Z,0.70
2023-05-10T00:56:55.286Z,0.30
2023-05-10T00:57:55.239Z,0.70
2023-05-10T00:58:55.227Z,0.60
2023-05-10T00:59:55.189Z,0.70
2023-05-10T01:00:55.202Z,0.50
2023-05-10T01:01:55.234Z,0.60
2023-05-10T01:02:55.298Z,0.70
2023-05-10T01:03:55.181Z,0.30
2023-05-10T01:04:55.197Z,0.30
2023-05-10T01:05:55.151Z,0.20
2023-05-10T01:06:55.176Z,0.20
2023-05-10T01:07:55.145Z,0.50
2023-05-10T01:08:55.126Z,0.30
2023-05-10T01:09:55.144Z,0.40
2023-05-10T01:10:55.089Z,0.40
2023-05-10T01:11:55.149Z,0.10
2023-05-10T01:12:55.108Z,0.60
2023-05-10T01:13:55.077Z,0.10
2023-05-10T01:14:55.110Z,0.40
2023-05-10T01:15:55.084Z,0.20
2023-05-10T01:16:55.043Z,0.30
2023-05-10T01:17:55.086Z,0.20
2023-05-10T01:18:55.018Z,0.20
2023-05-10T01:19:55.036Z,0.40
2023-05-10T01:20:55.047Z,0.10
2023-05-10T01:21:54.956Z,0.30
2023-05-10T01:22:54.982Z,0.30
2023-05-10T01:23:54.946Z,0.30
2023-05-10T01:24:54.952Z,0.10
2023-05-10T01:25:54.950Z,0.20
2023-05-10T01:26:54.933Z,0.20
2023-05-10T01:27:54.915Z,0.10
2023-05-10T01:28:54.873Z,0.10
2023-05-10T01:30:09.172Z,0.20
2023-05-10T01:30:54.924Z,0.40
2023-05-10T01:31:54.864Z,0.20
2023-05-10T01:32:54.957Z,0.30
2023-05-10T01:33:54.864Z,0.20
2023-05-10T01:34:54.829Z,0.30
2023-05-10T01:35:54.817Z,0.30
2023-05-10T01:36:54.795Z,0.20
2023-05-10T01:37:54.771Z,0.20
2023-05-10T01:38:54.789Z,0.20
2023-05-10T01:39:54.769Z,0.20
2023-05-10T01:40:54.765Z,0.20
2023-05-10T01:41:54.737Z,0.30
2023-05-10T01:42:54.740Z,0.10
2023-05-10T01:43:54.732Z,0.40
2023-05-10T01:44:54.724Z,0.40
2023-05-10T01:45:54.701Z,0.60
2023-05-10T01:46:54.731Z,0.20
2023-05-10T01:47:54.686Z,0.30
2023-05-10T01:48:54.676Z,0.20
2023-05-10T01:49:54.651Z,0.40
2023-05-10T01:50:54.646Z,0.50
2023-05-10T01:51:54.648Z,0.10
2023-05-10T01:52:54.617Z,0.20
2023-05-10T01:53:54.615Z,0.10
2023-05-10T01:54:54.602Z,0.40
2023-05-10T01:55:54.628Z,0.50
2023-05-10T01:56:54.593Z,0.40
2023-05-10T01:57:54.554Z,0.30
2023-05-10T01:58:54.615Z,0.20
2023-05-10T01:59:54.565Z,0.50
2023-05-10T02:00:54.557Z,0.30
2023-05-10T02:01:54.552Z,0.50
2023-05-10T02:02:54.554Z,0.50
2023-05-10T02:03:54.551Z,0.40
2023-05-10T02:04:54.484Z,0.40
2023-05-10T02:05:54.481Z,0.40
2023-05-10T02:06:54.482Z,0.60
2023-05-10T02:07:54.467Z,0.30
2023-05-10T02:08:54.463Z,0.30
2023-05-10T02:09:54.443Z,0.30
2023-05-10T02:10:54.431Z,0.70
2023-05-10T02:11:54.421Z,0.20
2023-05-10T02:12:54.425Z,0.40
2023-05-10T02:13:54.417Z,0.40
2023-05-10T02:14:54.399Z,0.40
2023-05-10T02:15:54.376Z,0.30
2023-05-10T02:16:54.440Z,0.50
2023-05-10T02:17:54.361Z,0.10
2023-05-10T02:18:54.378Z,0.50
2023-05-10T02:19:54.362Z,0.50
2023-05-10T02:20:54.350Z,0.50
2023-05-10T02:21:54.383Z,0.60
2023-05-10T02:22:54.312Z,0.30
2023-05-10T02:23:54.297Z,0.60
2023-05-10T02:24:54.294Z,0.50
2023-05-10T02:25:54.264Z,0.50
2023-05-10T02:26:54.283Z,0.60
2023-05-10T02:27:54.248Z,0.60
2023-05-10T02:28:54.231Z,0.80
2023-05-10T02:29:54.223Z,0.60
2023-05-10T02:30:54.211Z,0.40
2023-05-10T02:31:54.242Z,0.40
2023-05-10T02:32:54.307Z,0.40
2023-05-10T02:33:54.216Z,0.50
2023-05-10T02:34:54.186Z,0.50
2023-05-10T02:35:54.162Z,0.20
2023-05-10T02:36:54.151Z,0.30
2023-05-10T02:37:54.116Z,0.50
2023-05-10T02:38:54.127Z,0.40
2023-05-10T02:39:54.115Z,0.30
2023-05-10T02:40:54.139Z,0.40
2023-05-10T02:41:54.085Z,0.30
2023-05-10T02:42:54.073Z,0.50
2023-05-10T02:43:54.085Z,0.50
2023-05-10T02:44:54.071Z,0.30
2023-05-10T02:45:54.096Z,0.50
2023-05-10T02:46:54.045Z,0.50
2023-05-10T02:47:54.023Z,0.60
2023-05-10T02:48:54.027Z,0.50
2023-05-10T02:49:54.028Z,0.60
2023-05-10T02:50:54.002Z,0.60
2023-05-10T02:51:53.980Z,0.40
2023-05-10T02:52:53.971Z,0.40
2023-05-10T02:53:53.960Z,0.30
2023-05-10T02:54:53.967Z,0.50
2023-05-10T02:55:53.954Z,0.50
2023-05-10T02:56:53.928Z,0.40
2023-05-10T02:57:53.909Z,0.50
2023-05-10T02:58:53.951Z,0.20
2023-05-10T02:59:53.886Z,0.50
2023-05-10T03:00:53.914Z,0.40
2023-05-10T03:01:53.936Z,0.50
2023-05-10T03:02:53.925Z,0.30
2023-05-10T03:03:53.877Z,0.40
2023-05-10T03:04:53.935Z,0.80
2023-05-10T03:05:53.825Z,0.50
2023-05-10T03:06:53.827Z,0.30
2023-05-10T03:07:53.811Z,0.70
2023-05-10T03:08:53.825Z,0.50
2023-05-10T03:09:53.829Z,0.50
2023-05-10T03:10:53.774Z,0.50
2023-05-10T03:11:53.780Z,0.60
2023-05-10T03:12:53.796Z,0.30
2023-05-10T03:13:53.764Z,0.40
2023-05-10T03:14:53.732Z,0.50
2023-05-10T03:15:53.787Z,1.10
2023-05-10T03:16:53.702Z,0.50
2023-05-10T03:17:53.810Z,0.70
2023-05-10T03:18:53.682Z,0.70
2023-05-10T03:19:53.690Z,0.60
2023-05-10T03:20:53.699Z,0.10
2023-05-10T03:21:53.635Z,1.00
2023-05-10T03:22:53.662Z,0.90
2023-05-10T03:23:53.599Z,0.80
2023-05-10T03:24:53.572Z,0.70
2023-05-10T03:25:53.553Z,0.90
2023-05-10T03:26:53.558Z,0.60
2023-05-10T03:27:53.529Z,1.00
2023-05-10T03:28:53.540Z,0.70
2023-05-10T03:29:53.525Z,0.70
2023-05-10T03:30:53.506Z,1.00
2023-05-10T03:31:53.511Z,0.60
2023-05-10T03:32:53.535Z,0.90
2023-05-10T03:33:53.460Z,1.00
2023-05-10T03:34:53.453Z,0.50
2023-05-10T03:35:53.459Z,0.50
2023-05-10T03:36:53.440Z,1.20
2023-05-10T03:37:53.410Z,0.60
2023-05-10T03:38:53.418Z,1.00
2023-05-10T03:39:53.400Z,0.70
2023-05-10T03:40:53.467Z,0.90
2023-05-10T03:41:53.453Z,0.90
2023-05-10T03:42:53.361Z,1.00
2023-05-10T03:43:53.358Z,0.90
2023-05-10T03:44:53.346Z,0.90
2023-05-10T03:45:53.326Z,0.70
2023-05-10T03:46:53.376Z,0.70
2023-05-10T03:47:53.329Z,1.00
2023-05-10T03:48:53.309Z,0.50
2023-05-10T03:49:53.272Z,1.30
2023-05-10T03:50:53.279Z,0.70
2023-05-10T03:51:53.260Z,0.80
2023-05-10T03:52:54.692Z,0.90
2023-05-10T03:53:53.230Z,0.60
2023-05-10T03:54:53.257Z,1.00
2023-05-10T03:55:53.204Z,1.40
2023-05-10T03:56:53.214Z,1.20
2023-05-10T03:57:53.228Z,0.90
2023-05-10T03:58:53.218Z,1.30
2023-05-10T03:59:53.197Z,0.70
2023-05-10T04:00:53.172Z,1.60
2023-05-10T04:01:53.186Z,1.40
2023-05-10T04:02:53.210Z,1.40
2023-05-10T04:03:53.213Z,1.10
2023-05-10T04:04:53.120Z,1.50
2023-05-10T04:05:53.174Z,1.20
2023-05-10T04:06:53.107Z,1.10
2023-05-10T04:07:53.108Z,1.10
2023-05-10T04:08:53.083Z,1.10
2023-05-10T04:09:53.061Z,1.50
2023-05-10T04:10:53.079Z,2.20
2023-05-10T04:11:53.151Z,1.20
2023-05-10T04:12:53.072Z,0.90
2023-05-10T04:13:53.026Z,1.10
2023-05-10T04:14:53.110Z,1.20
2023-05-10T04:15:52.983Z,1.70
2023-05-10T04:16:53.017Z,1.50
2023-05-10T04:17:52.987Z,1.50
2023-05-10T04:18:52.977Z,1.00
2023-05-10T04:19:52.979Z,1.70
2023-05-10T04:20:52.949Z,1.40
2023-05-10T04:21:52.942Z,1.30
2023-05-10T04:22:52.926Z,1.40
2023-05-10T04:23:52.898Z,1.70
2023-05-10T04:24:52.918Z,1.00
2023-05-10T04:25:53.000Z,1.70
2023-05-10T04:26:52.894Z,1.00
2023-05-10T04:27:52.895Z,1.30
2023-05-10T04:28:52.885Z,2.30
2023-05-10T04:29:52.865Z,1.80
2023-05-10T04:30:52.896Z,2.00
2023-05-10T04:31:52.948Z,1.70
2023-05-10T04:32:52.974Z,2.00
2023-05-10T04:33:52.807Z,1.50
2023-05-10T04:34:52.820Z,2.60
2023-05-10T04:35:52.817Z,1.50
2023-05-10T04:36:52.809Z,2.60
2023-05-10T04:37:52.771Z,2.60
2023-05-10T04:38:52.762Z,2.30
2023-05-10T04:39:52.756Z,2.00
2023-05-10T04:40:52.866Z,2.10
2023-05-10T04:41:52.694Z,2.40
2023-05-10T04:42:52.702Z,2.50
2023-05-10T04:43:52.728Z,2.40
2023-05-10T04:44:52.712Z,2.30
2023-05-10T04:45:52.769Z,2.20
2023-05-10T04:46:52.688Z,1.90
2023-05-10T04:47:52.703Z,2.70
2023-05-10T04:48:52.708Z,1.90
2023-05-10T04:49:52.674Z,2.60
2023-05-10T04:50:52.614Z,2.60
2023-05-10T04:51:52.621Z,1.80
2023-05-10T04:52:53.360Z,1.60
2023-05-10T04:54:04.557Z,2.30
2023-05-10T04:54:52.587Z,2.10
2023-05-10T04:55:52.675Z,2.80
2023-05-10T04:56:52.577Z,2.10
2023-05-10T04:57:52.520Z,2.60
2023-05-10T04:58:52.562Z,2.50
2023-05-10T04:59:52.540Z,2.60
2023-05-10T05:00:52.519Z,2.30
2023-05-10T05:01:52.542Z,2.30
2023-05-10T05:02:52.564Z,3.40
2023-05-10T05:03:52.562Z,2.00
2023-05-10T05:04:52.475Z,2.60
2023-05-10T05:05:52.483Z,2.40
2023-05-10T05:06:54.026Z,2.20
2023-05-10T05:07:52.455Z,3.40
2023-05-10T05:08:52.452Z,4.10
2023-05-10T05:09:52.410Z,3.60
2023-05-10T05:10:52.424Z,3.40
2023-05-10T05:11:52.464Z,2.50
2023-05-10T05:12:52.394Z,3.00
2023-05-10T05:13:52.422Z,3.30
2023-05-10T05:14:52.393Z,1.40
2023-05-10T05:15:52.464Z,3.30
2023-05-10T05:16:52.334Z,2.50
2023-05-10T05:17:52.410Z,2.70
2023-05-10T05:18:52.300Z,2.70
2023-05-10T05:19:52.342Z,3.30
2023-05-10T05:20:52.282Z,2.70
2023-05-10T05:21:52.368Z,2.90
2023-05-10T05:22:52.345Z,1.90
2023-05-10T05:23:52.334Z,2.20
2023-05-10T05:24:52.245Z,2.80
2023-05-10T05:25:52.243Z,3.00
2023-05-10T05:26:52.232Z,3.00
2023-05-10T05:27:52.215Z,1.80
2023-05-10T05:28:52.183Z,3.30
2023-05-10T05:29:52.182Z,3.80
2023-05-10T05:30:52.189Z,1.70
2023-05-10T05:31:54.775Z,2.30
2023-05-10T05:32:52.188Z,3.80
2023-05-10T05:33:52.170Z,3.40
2023-05-10T05:34:52.106Z,3.50
2023-05-10T05:35:52.160Z,3.10
2023-05-10T05:36:52.135Z,2.40
2023-05-10T05:37:52.085Z,3.20
2023-05-10T05:38:52.110Z,3.00
2023-05-10T05:39:52.096Z,2.40
2023-05-10T05:40:52.078Z,2.20
2023-05-10T05:41:52.077Z,4.00
2023-05-10T05:42:52.046Z,2.80
2023-05-10T05:43:52.069Z,2.40
2023-05-10T05:44:52.016Z,2.60
2023-05-10T05:45:52.164Z,2.00
2023-05-10T05:46:52.078Z,2.80
2023-05-10T05:47:52.093Z,2.60
2023-05-10T05:49:07.932Z,3.30
2023-05-10T05:49:52.109Z,2.60
2023-05-10T05:52:30.770Z,2.30
2023-05-10T05:53:31.941Z,1.60
2023-05-10T05:54:31.591Z,2.90
2023-05-10T05:57:35.214Z,2.70
2023-05-10T05:58:35.804Z,3.80
2023-05-10T06:01:41.567Z,2.60
2023-05-10T06:02:42.531Z,2.90
2023-05-10T06:03:42.512Z,3.20
2023-05-10T06:04:44.828Z,4.10
2023-05-10T06:05:42.399Z,4.10
2023-05-10T06:06:42.341Z,3.10
2023-05-10T06:07:42.330Z,3.10
2023-05-10T06:08:42.349Z,4.00
2023-05-10T06:09:42.304Z,3.70
2023-05-10T06:10:42.307Z,2.30
2023-05-10T06:11:42.434Z,3.20
2023-05-10T06:12:42.361Z,2.90
2023-05-10T06:13:42.254Z,2.90
2023-05-10T06:14:42.266Z,3.10
2023-05-10T06:15:42.227Z,3.40
2023-05-10T06:16:42.368Z,4.10
2023-05-10T06:17:42.214Z,2.70
2023-05-10T06:18:42.210Z,3.50
2023-05-10T06:19:42.222Z,4.20
2023-05-10T06:20:42.203Z,3.50
2023-05-10T06:21:42.199Z,4.10
2023-05-10T06:22:42.164Z,4.20
2023-05-10T06:23:42.210Z,3.30
2023-05-10T06:24:42.220Z,2.60
2023-05-10T06:25:42.181Z,4.30
2023-05-10T06:26:42.135Z,2.90
2023-05-10T06:27:42.096Z,3.70
2023-05-10T06:28:42.168Z,3.60
2023-05-10T06:29:42.066Z,4.30
2023-05-10T06:30:42.107Z,3.00
2023-05-10T06:31:42.111Z,3.70
2023-05-10T06:32:42.145Z,3.20
2023-05-10T06:33:42.050Z,3.10
2023-05-10T06:34:42.071Z,3.40
2023-05-10T06:35:42.017Z,4.00
2023-05-10T06:36:42.043Z,3.70
2023-05-10T06:37:42.013Z,3.90
2023-05-10T06:38:41.991Z,3.80
2023-05-10T06:39:41.974Z,2.60
2023-05-10T06:40:41.976Z,5.10
2023-05-10T06:41:42.008Z,4.10
2023-05-10T06:42:41.944Z,3.40
2023-05-10T06:43:41.931Z,3.60
2023-05-10T06:44:41.916Z,3.80
2023-05-10T06:45:41.908Z,3.40
2023-05-10T06:46:41.967Z,3.20
2023-05-10T06:47:41.914Z,3.60
2023-05-10T06:48:41.866Z,3.10
2023-05-10T06:49:41.898Z,3.60
2023-05-10T06:50:41.872Z,2.80
2023-05-10T06:51:41.868Z,3.60
2023-05-10T06:52:41.862Z,3.30
2023-05-10T06:53:41.822Z,4.50
2023-05-10T06:54:41.834Z,4.40
2023-05-10T06:55:41.800Z,3.60
2023-05-10T06:56:41.790Z,3.20
2023-05-10T06:57:41.766Z,4.60
2023-05-10T06:58:41.799Z,3.50
2023-05-10T06:59:41.732Z,3.00
2023-05-10T07:00:41.876Z,3.50
2023-05-10T07:01:41.758Z,4.10
2023-05-10T07:02:41.746Z,3.20
2023-05-10T07:03:41.769Z,3.60
2023-05-10T07:04:41.909Z,3.90
2023-05-10T07:05:41.754Z,3.30
2023-05-10T07:06:41.651Z,3.20
2023-05-10T07:07:41.660Z,3.30
2023-05-10T07:08:41.709Z,4.30
2023-05-10T07:09:41.667Z,3.40
2023-05-10T07:10:41.669Z,3.60
2023-05-10T07:11:41.625Z,3.70
2023-05-10T07:12:41.678Z,4.90
2023-05-10T07:13:41.621Z,3.80
2023-05-10T07:14:41.608Z,3.90
2023-05-10T07:15:41.576Z,4.30
2023-05-10T07:16:41.642Z,4.20
2023-05-10T07:17:43.257Z,3.70
2023-05-10T07:18:41.619Z,3.20
2023-05-10T07:19:41.530Z,4.00
2023-05-10T07:20:41.536Z,3.20
2023-05-10T07:21:41.598Z,2.70
2023-05-10T07:22:41.514Z,3.00
2023-05-10T07:23:43.690Z,3.30
2023-05-10T07:24:41.611Z,3.40
2023-05-10T07:25:41.634Z,4.50
2023-05-10T07:32:21.149Z,4.20
2023-05-10T07:33:21.970Z,4.40
2023-05-10T07:34:21.971Z,3.80
2023-05-10T07:35:21.741Z,3.30
2023-05-10T07:37:31.425Z,3.10
2023-05-10T07:41:36.617Z,4.10
2023-05-10T07:42:37.629Z,2.90
2023-05-10T07:48:18.533Z,4.30
2023-05-10T07:49:19.591Z,4.30
2023-05-10T07:50:19.355Z,3.70
2023-05-10T07:51:19.280Z,4.30
2023-05-10T07:52:21.236Z,3.90
2023-05-10T07:53:19.257Z,3.70
2023-05-10T07:54:34.050Z,4.70
2023-05-10T07:55:19.239Z,3.50
2023-05-10T07:56:19.224Z,3.00
2023-05-10T07:57:19.224Z,3.70
2023-05-10T07:58:19.265Z,4.20
2023-05-10T07:59:19.189Z,4.90
2023-05-10T08:00:19.243Z,3.10
2023-05-10T08:01:19.134Z,4.40
2023-05-10T08:02:19.207Z,5.00
2023-05-10T08:03:19.281Z,3.70
2023-05-10T08:04:19.382Z,4.60
2023-05-10T08:06:38.426Z,4.50
2023-05-10T08:07:39.614Z,3.40
2023-05-10T08:10:12.316Z,3.20
2023-05-10T08:11:13.227Z,3.70
2023-05-10T08:14:44.808Z,4.80
2023-05-10T08:15:45.604Z,4.00
2023-05-10T08:18:34.211Z,3.90
2023-05-10T08:19:36.032Z,4.60
2023-05-10T08:20:35.278Z,4.00
2023-05-10T08:21:35.065Z,3.80
2023-05-10T08:22:51.817Z,4.40
2023-05-10T08:24:59.381Z,3.10
2023-05-10T08:26:00.374Z,4.00
2023-05-10T08:27:18.823Z,3.20
2023-05-10T08:29:53.424Z,4.60
2023-05-10T08:30:54.401Z,4.00
2023-05-10T08:32:02.965Z,4.20
2023-05-10T08:32:54.448Z,3.30
2023-05-10T08:33:54.310Z,3.10
2023-05-10T08:34:54.288Z,4.30
2023-05-10T08:37:32.894Z,3.60
2023-05-10T08:41:48.498Z,3.60
2023-05-10T08:48:19.453Z,4.60
2023-05-10T08:49:20.200Z,3.00
2023-05-10T08:52:33.373Z,3.50
2023-05-10T08:53:45.282Z,3.70
2023-05-10T08:54:34.165Z,3.70
2023-05-10T08:55:34.069Z,4.20
2023-05-10T09:07:11.539Z,4.60
2023-05-10T09:08:12.548Z,4.80
2023-05-10T09:09:12.609Z,3.90
2023-05-10T09:13:35.983Z,3.50
2023-05-10T09:14:36.622Z,4.60
2023-05-10T09:15:36.695Z,3.40
2023-05-10T09:16:36.416Z,3.20
2023-05-10T09:17:36.405Z,3.50
2023-05-10T09:40:14.410Z,3.30
2023-05-10T09:41:15.541Z,3.30
2023-05-10T09:43:49.175Z,2.60
2023-05-10T09:44:50.337Z,3.40
2023-05-10T09:57:39.313Z,3.10
2023-05-10T09:58:40.263Z,4.10
2023-05-10T09:59:40.249Z,3.90
2023-05-10T10:00:40.253Z,3.70
2023-05-10T10:01:40.273Z,3.00
2023-05-10T10:02:40.169Z,3.10
2023-05-10T10:38:49.885Z,2.70
2023-05-10T10:41:13.152Z,3.50
2023-05-10T10:42:14.113Z,3.00
2023-05-10T10:43:14.051Z,3.40
2023-05-10T10:44:14.040Z,2.60
2023-05-10T10:45:14.213Z,3.50
2023-05-10T10:46:13.961Z,2.90
2023-05-10T10:47:24.769Z,2.90
2023-05-10T10:48:13.922Z,2.80
2023-05-10T10:49:13.924Z,2.30
2023-05-10T10:50:14.044Z,2.50
2023-05-10T10:51:13.866Z,2.70
2023-05-10T10:52:13.847Z,2.90
2023-05-10T10:53:14.112Z,2.80
2023-05-10T10:54:13.959Z,3.10
2023-05-10T10:55:13.889Z,3.60
2023-05-10T10:56:13.903Z,3.00
2023-05-10T10:57:13.822Z,4.20
2023-05-10T10:58:13.799Z,3.10
2023-05-10T11:00:23.217Z,2.20
2023-05-10T11:01:24.186Z,3.00
2023-05-10T11:02:24.179Z,2.90
2023-05-10T11:12:43.046Z,3.10
2023-05-10T11:13:44.025Z,3.20
2023-05-10T11:14:43.973Z,3.00
2023-05-10T11:15:43.918Z,2.90
2023-05-10T11:19:42.785Z,3.30
2023-05-10T11:20:43.388Z,3.80
2023-05-10T11:21:43.417Z,2.70
2023-05-10T11:22:43.367Z,2.60
2023-05-10T11:23:43.257Z,3.50
2023-05-10T11:24:43.276Z,3.20
2023-05-10T11:25:43.447Z,3.10
2023-05-10T11:26:43.260Z,3.50
2023-05-10T11:27:43.268Z,3.20
2023-05-10T11:28:43.233Z,2.70
2023-05-10T11:29:43.244Z,3.00
2023-05-10T11:30:43.203Z,2.80
2023-05-10T11:31:43.178Z,2.10
2023-05-10T11:32:43.230Z,3.30
2023-05-10T11:33:43.217Z,2.70
2023-05-10T11:34:43.174Z,3.00
2023-05-10T11:35:43.721Z,2.90
2023-05-10T11:36:43.195Z,3.30
2023-05-10T11:37:43.134Z,2.90
2023-05-10T11:38:43.145Z,2.10
2023-05-10T11:39:43.137Z,3.10
2023-05-10T11:40:43.112Z,4.20
2023-05-10T11:41:43.191Z,3.00
2023-05-10T11:42:43.072Z,3.00
2023-05-10T11:43:43.111Z,3.20
2023-05-10T11:44:43.045Z,2.20
2023-05-10T11:45:43.052Z,3.00
2023-05-10T11:46:43.214Z,2.90
2023-05-10T11:54:33.515Z,2.60
2023-05-10T11:55:34.891Z,2.90
2023-05-10T11:56:34.446Z,2.90
2023-05-10T11:57:34.297Z,3.00
2023-05-10T11:58:54.508Z,3.00
2023-05-10T11:59:34.315Z,3.20
2023-05-10T12:00:34.386Z,2.80
2023-05-10T12:01:34.257Z,2.90
2023-05-10T12:02:34.329Z,1.90
2023-05-10T12:03:34.338Z,2.10
2023-05-10T12:04:34.296Z,2.90
2023-05-10T12:41:08.918Z,2.10
2023-05-10T12:42:09.995Z,2.00
2023-05-10T12:43:09.863Z,2.50
2023-05-10T14:49:09.682Z,2.20
2023-05-10T14:50:10.825Z,1.30
2023-05-10T14:51:10.507Z,2.10
2023-05-10T14:52:10.534Z,2.00
2023-05-10T14:53:10.480Z,2.10
2023-05-10T15:04:30.336Z,2.30
2023-05-10T15:05:31.283Z,1.30
2023-05-10T15:07:01.799Z,1.80
2023-05-10T15:07:31.268Z,2.10
2023-05-10T15:08:31.204Z,2.20
2023-05-10T15:09:31.221Z,2.70
2023-05-10T15:13:41.931Z,1.90
2023-05-10T15:14:42.936Z,1.80
2023-05-10T15:15:42.872Z,1.60
2023-05-10T15:16:43.119Z,1.60
2023-05-10T15:17:42.886Z,2.40
2023-05-10T15:18:43.123Z,2.00
2023-05-10T15:19:42.831Z,1.40
2023-05-10T15:20:43.619Z,2.20
2023-05-10T15:21:42.827Z,1.50
2023-05-10T15:22:42.775Z,2.10
2023-05-10T15:23:42.788Z,2.00
2023-05-10T15:24:42.791Z,2.10
2023-05-10T15:25:42.748Z,1.90
2023-05-10T15:26:42.757Z,1.90
2023-05-10T15:27:42.876Z,1.70
2023-05-10T15:28:42.764Z,2.10
2023-05-10T15:29:42.757Z,2.10
2023-05-10T15:30:42.727Z,1.80
2023-05-10T15:31:42.743Z,1.70
2023-05-10T15:32:42.751Z,2.00
2023-05-10T15:33:42.718Z,2.50
2023-05-10T15:34:42.672Z,1.80
2023-05-10T15:35:42.694Z,2.30
2023-05-10T15:36:42.686Z,1.90
2023-05-10T15:37:42.636Z,2.40
2023-05-10T15:38:42.643Z,2.30
2023-05-10T15:39:42.604Z,2.40
2023-05-10T15:40:42.634Z,2.00
2023-05-10T15:41:42.707Z,2.10
2023-05-10T15:42:42.663Z,2.00
2023-05-10T15:43:42.611Z,2.40
2023-05-10T15:44:42.588Z,1.80
2023-05-10T15:45:45.165Z,2.50
2023-05-10T15:46:42.585Z,1.80
2023-05-10T15:47:42.556Z,2.00
2023-05-10T15:48:42.516Z,1.90
2023-05-10T15:49:42.652Z,1.50
2023-05-10T15:50:42.526Z,1.60
2023-05-10T15:51:43.347Z,2.50
2023-05-10T15:52:42.520Z,2.20
2023-05-10T15:53:49.718Z,1.80
2023-05-10T15:54:42.462Z,1.80
2023-05-10T15:55:42.478Z,1.90
2023-05-10T15:56:42.437Z,2.00
2023-05-10T15:57:42.611Z,3.20
2023-05-10T15:58:42.791Z,1.50
2023-05-10T15:59:42.402Z,1.90
2023-05-10T16:00:42.511Z,2.10
2023-05-10T16:01:42.419Z,2.50
2023-05-10T16:08:42.179Z,2.50
2023-05-10T16:16:56.966Z,1.50
2023-05-10T16:17:57.343Z,1.40
2023-05-10T16:18:57.146Z,1.80
2023-05-10T16:19:57.117Z,1.20
2023-05-10T16:20:57.106Z,1.20
2023-05-10T16:21:57.143Z,1.80
2023-05-10T16:22:57.094Z,0.90
2023-05-10T16:23:57.119Z,1.40
2023-05-10T16:24:57.331Z,1.90
2023-05-10T16:25:57.062Z,1.50
2023-05-10T16:26:57.061Z,0.90
2023-05-10T16:54:54.189Z,1.50
2023-05-10T23:27:34.309Z,1.90
2023-05-10T23:28:35.222Z,2.30
2023-05-10T23:29:35.092Z,2.40
2023-05-10T23:30:35.080Z,2.10
2023-05-10T23:31:35.137Z,1.90
2023-05-10T23:32:35.128Z,1.70
2023-05-10T23:33:35.066Z,2.10
2023-05-10T23:34:35.143Z,1.80
2023-05-10T23:35:35.103Z,1.50
2023-05-10T23:36:35.091Z,2.10
2023-05-10T23:37:35.287Z,2.10
2023-05-10T23:38:35.064Z,1.50
2023-05-10T23:39:35.108Z,2.20
2023-05-10T23:40:35.132Z,1.40
2023-05-10T23:45:52.710Z,1.80
2023-05-10T23:51:31.749Z,2.10
2023-05-10T23:52:32.831Z,2.10
